sensor_id;sensor_type;location;lat;lon;timestamp;P1;durP1;ratioP1;P2;durP2;ratioP2
5217;SDS011;26539;51.064;6.346;2023-07-31T00:00:24;13.33;;;5.03;;
5217;SDS011;26539;51.064;6.346;2023-07-31T00:02:49;6.07;;;4.20;;
5217;SDS011;26539;51.064;6.346;2023-07-31T00:05:16;12.30;;;5.00;;
5217;SDS011;26539;51.064;6.346;2023-07-31T00:07:41;12.93;;;5.00;;
5217;SDS011;26539;51.064;6.346;2023-07-31T00:10:07;10.00;;;4.60;;
5217;SDS011;26539;51.064;6.346;2023-07-31T00:12:33;8.43;;;4.83;;
5217;SDS011;26539;51.064;6.346;2023-07-31T00:14:58;12.57;;;4.93;;
5217;SDS011;26539;51.064;6.346;2023-07-31T00:17:24;10.30;;;4.70;;
5217;SDS011;26539;51.064;6.346;2023-07-31T00:19:49;7.80;;;5.70;;
5217;SDS011;26539;51.064;6.346;2023-07-31T00:22:15;8.77;;;4.20;;
5217;SDS011;26539;51.064;6.346;2023-07-31T00:24:41;10.40;;;4.57;;
5217;SDS011;26539;51.064;6.346;2023-07-31T00:27:06;10.10;;;4.83;;
5217;SDS011;26539;51.064;6.346;2023-07-31T00:29:32;11.57;;;5.40;;
5217;SDS011;26539;51.064;6.346;2023-07-31T00:31:58;7.03;;;4.07;;
5217;SDS011;26539;51.064;6.346;2023-07-31T00:34:23;12.97;;;5.10;;
5217;SDS011;26539;51.064;6.346;2023-07-31T00:36:48;9.77;;;4.00;;
5217;SDS011;26539;51.064;6.346;2023-07-31T00:39:14;7.80;;;4.20;;
5217;SDS011;26539;51.064;6.346;2023-07-31T00:41:39;9.70;;;4.40;;
5217;SDS011;26539;51.064;6.346;2023-07-31T00:44:05;12.30;;;4.60;;
5217;SDS011;26539;51.064;6.346;2023-07-31T00:46:30;9.53;;;4.13;;
5217;SDS011;26539;51.064;6.346;2023-07-31T00:48:56;7.90;;;4.27;;
5217;SDS011;26539;51.064;6.346;2023-07-31T00:51:22;11.90;;;3.93;;
5217;SDS011;26539;51.064;6.346;2023-07-31T00:53:47;11.27;;;4.50;;
5217;SDS011;26539;51.064;6.346;2023-07-31T00:56:13;10.13;;;3.97;;
5217;SDS011;26539;51.064;6.346;2023-07-31T00:58:39;7.63;;;4.10;;
5217;SDS011;26539;51.064;6.346;2023-07-31T01:01:05;9.90;;;4.60;;
5217;SDS011;26539;51.064;6.346;2023-07-31T01:03:31;9.03;;;4.53;;
5217;SDS011;26539;51.064;6.346;2023-07-31T01:08:38;11.80;;;4.30;;
5217;SDS011;26539;51.064;6.346;2023-07-31T01:11:28;13.13;;;4.53;;
5217;SDS011;26539;51.064;6.346;2023-07-31T01:13:55;12.43;;;4.60;;
5217;SDS011;26539;51.064;6.346;2023-07-31T01:16:21;13.53;;;4.50;;
5217;SDS011;26539;51.064;6.346;2023-07-31T01:18:47;9.40;;;5.40;;
5217;SDS011;26539;51.064;6.346;2023-07-31T01:24:23;11.23;;;4.60;;
5217;SDS011;26539;51.064;6.346;2023-07-31T01:27:10;8.83;;;5.10;;
5217;SDS011;26539;51.064;6.346;2023-07-31T01:32:28;7.80;;;4.70;;
5217;SDS011;26539;51.064;6.346;2023-07-31T01:34:54;15.40;;;5.50;;
5217;SDS011;26539;51.064;6.346;2023-07-31T01:37:27;10.33;;;4.80;;
5217;SDS011;26539;51.064;6.346;2023-07-31T01:39:54;9.57;;;4.50;;
5217;SDS011;26539;51.064;6.346;2023-07-31T01:42:19;9.63;;;4.80;;
5217;SDS011;26539;51.064;6.346;2023-07-31T01:44:45;15.37;;;4.33;;
5217;SDS011;26539;51.064;6.346;2023-07-31T01:47:11;8.40;;;4.17;;
5217;SDS011;26539;51.064;6.346;2023-07-31T01:49:36;9.23;;;3.90;;
5217;SDS011;26539;51.064;6.346;2023-07-31T01:52:02;13.17;;;4.40;;
5217;SDS011;26539;51.064;6.346;2023-07-31T01:54:27;8.67;;;4.17;;
5217;SDS011;26539;51.064;6.346;2023-07-31T01:56:53;15.87;;;4.77;;
5217;SDS011;26539;51.064;6.346;2023-07-31T01:59:18;9.33;;;4.60;;
5217;SDS011;26539;51.064;6.346;2023-07-31T02:01:44;11.30;;;4.57;;
5217;SDS011;26539;51.064;6.346;2023-07-31T02:04:09;11.10;;;5.03;;
5217;SDS011;26539;51.064;6.346;2023-07-31T02:06:35;9.20;;;4.37;;
5217;SDS011;26539;51.064;6.346;2023-07-31T02:09:00;8.40;;;4.53;;
5217;SDS011;26539;51.064;6.346;2023-07-31T02:11:26;6.90;;;4.00;;
5217;SDS011;26539;51.064;6.346;2023-07-31T02:13:51;10.90;;;4.53;;
5217;SDS011;26539;51.064;6.346;2023-07-31T02:16:17;10.20;;;5.33;;
5217;SDS011;26539;51.064;6.346;2023-07-31T02:18:42;13.30;;;5.60;;
5217;SDS011;26539;51.064;6.346;2023-07-31T02:21:08;10.63;;;5.13;;
5217;SDS011;26539;51.064;6.346;2023-07-31T02:23:33;10.47;;;5.17;;
5217;SDS011;26539;51.064;6.346;2023-07-31T02:25:58;10.87;;;5.27;;
5217;SDS011;26539;51.064;6.346;2023-07-31T02:28:24;7.87;;;4.40;;
5217;SDS011;26539;51.064;6.346;2023-07-31T02:30:50;15.80;;;4.97;;
5217;SDS011;26539;51.064;6.346;2023-07-31T02:33:17;9.83;;;4.83;;
5217;SDS011;26539;51.064;6.346;2023-07-31T02:35:42;6.60;;;4.13;;
5217;SDS011;26539;51.064;6.346;2023-07-31T02:38:08;11.47;;;5.20;;
5217;SDS011;26539;51.064;6.346;2023-07-31T02:40:33;10.23;;;5.87;;
5217;SDS011;26539;51.064;6.346;2023-07-31T02:42:59;10.03;;;5.70;;
5217;SDS011;26539;51.064;6.346;2023-07-31T02:45:24;9.37;;;4.97;;
5217;SDS011;26539;51.064;6.346;2023-07-31T02:47:50;9.20;;;4.40;;
5217;SDS011;26539;51.064;6.346;2023-07-31T02:50:15;12.70;;;5.00;;
5217;SDS011;26539;51.064;6.346;2023-07-31T02:52:41;9.10;;;4.57;;
5217;SDS011;26539;51.064;6.346;2023-07-31T02:55:07;7.50;;;4.60;;
5217;SDS011;26539;51.064;6.346;2023-07-31T02:57:32;12.70;;;5.17;;
5217;SDS011;26539;51.064;6.346;2023-07-31T02:59:58;13.27;;;4.87;;
5217;SDS011;26539;51.064;6.346;2023-07-31T03:02:23;9.83;;;5.13;;
5217;SDS011;26539;51.064;6.346;2023-07-31T03:04:49;11.17;;;4.80;;
5217;SDS011;26539;51.064;6.346;2023-07-31T03:07:14;5.60;;;4.30;;
5217;SDS011;26539;51.064;6.346;2023-07-31T03:09:40;8.40;;;4.90;;
5217;SDS011;26539;51.064;6.346;2023-07-31T03:12:05;9.30;;;4.83;;
5217;SDS011;26539;51.064;6.346;2023-07-31T03:14:32;7.47;;;5.33;;
5217;SDS011;26539;51.064;6.346;2023-07-31T03:16:57;7.20;;;4.50;;
5217;SDS011;26539;51.064;6.346;2023-07-31T03:19:22;17.90;;;5.83;;
5217;SDS011;26539;51.064;6.346;2023-07-31T03:21:48;10.77;;;5.10;;
5217;SDS011;26539;51.064;6.346;2023-07-31T03:24:14;9.23;;;5.57;;
5217;SDS011;26539;51.064;6.346;2023-07-31T03:26:39;9.60;;;5.00;;
5217;SDS011;26539;51.064;6.346;2023-07-31T03:29:06;8.47;;;4.87;;
5217;SDS011;26539;51.064;6.346;2023-07-31T03:31:32;11.83;;;5.23;;
5217;SDS011;26539;51.064;6.346;2023-07-31T03:33:58;10.30;;;4.60;;
5217;SDS011;26539;51.064;6.346;2023-07-31T03:36:23;12.53;;;5.73;;
5217;SDS011;26539;51.064;6.346;2023-07-31T03:38:48;12.80;;;5.57;;
5217;SDS011;26539;51.064;6.346;2023-07-31T03:41:16;13.70;;;4.90;;
5217;SDS011;26539;51.064;6.346;2023-07-31T03:43:41;9.10;;;4.33;;
5217;SDS011;26539;51.064;6.346;2023-07-31T03:46:07;8.73;;;4.83;;
5217;SDS011;26539;51.064;6.346;2023-07-31T03:48:32;10.03;;;6.00;;
5217;SDS011;26539;51.064;6.346;2023-07-31T03:50:58;12.50;;;5.73;;
5217;SDS011;26539;51.064;6.346;2023-07-31T03:53:23;13.30;;;5.50;;
5217;SDS011;26539;51.064;6.346;2023-07-31T03:55:49;10.23;;;6.00;;
5217;SDS011;26539;51.064;6.346;2023-07-31T03:58:14;8.20;;;5.70;;
5217;SDS011;26539;51.064;6.346;2023-07-31T04:00:40;12.90;;;6.93;;
5217;SDS011;26539;51.064;6.346;2023-07-31T04:03:05;7.83;;;5.33;;
5217;SDS011;26539;51.064;6.346;2023-07-31T04:05:31;9.87;;;6.10;;
5217;SDS011;26539;51.064;6.346;2023-07-31T04:07:57;7.37;;;4.77;;
5217;SDS011;26539;51.064;6.346;2023-07-31T04:10:23;10.90;;;5.83;;
5217;SDS011;26539;51.064;6.346;2023-07-31T04:12:48;12.13;;;6.13;;
5217;SDS011;26539;51.064;6.346;2023-07-31T04:15:14;11.40;;;5.57;;
5217;SDS011;26539;51.064;6.346;2023-07-31T04:17:39;9.90;;;5.80;;
5217;SDS011;26539;51.064;6.346;2023-07-31T04:20:05;20.60;;;6.00;;
5217;SDS011;26539;51.064;6.346;2023-07-31T04:22:31;12.03;;;5.50;;
5217;SDS011;26539;51.064;6.346;2023-07-31T04:24:57;9.90;;;6.03;;
5217;SDS011;26539;51.064;6.346;2023-07-31T04:27:22;11.43;;;6.10;;
5217;SDS011;26539;51.064;6.346;2023-07-31T04:29:48;8.50;;;5.80;;
5217;SDS011;26539;51.064;6.346;2023-07-31T04:32:13;9.30;;;4.93;;
5217;SDS011;26539;51.064;6.346;2023-07-31T04:34:41;8.47;;;5.00;;
5217;SDS011;26539;51.064;6.346;2023-07-31T04:37:07;10.00;;;5.07;;
5217;SDS011;26539;51.064;6.346;2023-07-31T04:39:45;10.70;;;5.33;;
5217;SDS011;26539;51.064;6.346;2023-07-31T04:42:10;11.13;;;5.40;;
5217;SDS011;26539;51.064;6.346;2023-07-31T04:44:36;9.83;;;4.67;;
5217;SDS011;26539;51.064;6.346;2023-07-31T04:47:01;6.87;;;4.70;;
5217;SDS011;26539;51.064;6.346;2023-07-31T04:49:27;7.17;;;4.63;;
5217;SDS011;26539;51.064;6.346;2023-07-31T04:51:53;9.20;;;5.20;;
5217;SDS011;26539;51.064;6.346;2023-07-31T04:54:18;8.10;;;4.53;;
5217;SDS011;26539;51.064;6.346;2023-07-31T04:56:44;9.00;;;4.90;;
5217;SDS011;26539;51.064;6.346;2023-07-31T04:59:09;6.70;;;4.23;;
5217;SDS011;26539;51.064;6.346;2023-07-31T05:01:35;7.83;;;5.00;;
5217;SDS011;26539;51.064;6.346;2023-07-31T05:04:00;7.00;;;4.93;;
5217;SDS011;26539;51.064;6.346;2023-07-31T05:06:26;8.90;;;4.30;;
5217;SDS011;26539;51.064;6.346;2023-07-31T05:08:51;9.37;;;4.90;;
5217;SDS011;26539;51.064;6.346;2023-07-31T05:11:17;13.13;;;5.03;;
5217;SDS011;26539;51.064;6.346;2023-07-31T05:13:42;7.97;;;5.53;;
5217;SDS011;26539;51.064;6.346;2023-07-31T05:16:08;6.70;;;4.67;;
5217;SDS011;26539;51.064;6.346;2023-07-31T05:18:33;6.83;;;4.53;;
5217;SDS011;26539;51.064;6.346;2023-07-31T05:20:59;8.10;;;4.93;;
5217;SDS011;26539;51.064;6.346;2023-07-31T05:23:24;9.73;;;4.40;;
5217;SDS011;26539;51.064;6.346;2023-07-31T05:25:50;8.77;;;5.47;;
5217;SDS011;26539;51.064;6.346;2023-07-31T05:28:15;9.00;;;4.53;;
5217;SDS011;26539;51.064;6.346;2023-07-31T05:30:41;6.00;;;4.00;;
5217;SDS011;26539;51.064;6.346;2023-07-31T05:33:06;7.80;;;4.50;;
5217;SDS011;26539;51.064;6.346;2023-07-31T05:35:38;9.07;;;5.00;;
5217;SDS011;26539;51.064;6.346;2023-07-31T05:38:03;10.07;;;4.40;;
5217;SDS011;26539;51.064;6.346;2023-07-31T05:40:31;9.83;;;4.57;;
5217;SDS011;26539;51.064;6.346;2023-07-31T05:42:57;8.53;;;5.03;;
5217;SDS011;26539;51.064;6.346;2023-07-31T05:45:23;7.73;;;4.80;;
5217;SDS011;26539;51.064;6.346;2023-07-31T05:47:49;12.57;;;5.13;;
5217;SDS011;26539;51.064;6.346;2023-07-31T05:50:15;9.80;;;5.20;;
5217;SDS011;26539;51.064;6.346;2023-07-31T05:52:41;11.60;;;4.87;;
5217;SDS011;26539;51.064;6.346;2023-07-31T05:55:07;6.30;;;4.83;;
5217;SDS011;26539;51.064;6.346;2023-07-31T05:57:33;9.43;;;4.47;;
5217;SDS011;26539;51.064;6.346;2023-07-31T05:59:58;8.67;;;4.83;;
5217;SDS011;26539;51.064;6.346;2023-07-31T06:02:24;9.67;;;5.00;;
5217;SDS011;26539;51.064;6.346;2023-07-31T06:04:49;12.17;;;4.70;;
5217;SDS011;26539;51.064;6.346;2023-07-31T06:07:15;9.63;;;4.93;;
5217;SDS011;26539;51.064;6.346;2023-07-31T06:09:40;9.80;;;4.67;;
5217;SDS011;26539;51.064;6.346;2023-07-31T06:12:06;6.37;;;4.27;;
5217;SDS011;26539;51.064;6.346;2023-07-31T06:14:32;6.40;;;3.53;;
5217;SDS011;26539;51.064;6.346;2023-07-31T06:16:59;8.90;;;4.50;;
5217;SDS011;26539;51.064;6.346;2023-07-31T06:19:25;7.00;;;4.40;;
5217;SDS011;26539;51.064;6.346;2023-07-31T06:21:50;7.87;;;4.00;;
5217;SDS011;26539;51.064;6.346;2023-07-31T06:24:16;13.30;;;5.30;;
5217;SDS011;26539;51.064;6.346;2023-07-31T06:26:45;7.40;;;3.87;;
5217;SDS011;26539;51.064;6.346;2023-07-31T06:29:10;9.47;;;4.20;;
5217;SDS011;26539;51.064;6.346;2023-07-31T06:31:36;5.63;;;3.93;;
5217;SDS011;26539;51.064;6.346;2023-07-31T06:34:01;9.73;;;3.73;;
5217;SDS011;26539;51.064;6.346;2023-07-31T06:36:27;6.33;;;3.90;;
5217;SDS011;26539;51.064;6.346;2023-07-31T06:38:52;8.30;;;3.90;;
5217;SDS011;26539;51.064;6.346;2023-07-31T06:41:17;8.00;;;4.17;;
5217;SDS011;26539;51.064;6.346;2023-07-31T06:43:43;4.63;;;3.60;;
5217;SDS011;26539;51.064;6.346;2023-07-31T06:46:09;8.53;;;4.00;;
5217;SDS011;26539;51.064;6.346;2023-07-31T06:48:35;7.07;;;4.10;;
5217;SDS011;26539;51.064;6.346;2023-07-31T06:51:02;6.83;;;3.47;;
5217;SDS011;26539;51.064;6.346;2023-07-31T06:53:28;5.77;;;3.03;;
5217;SDS011;26539;51.064;6.346;2023-07-31T06:55:53;6.43;;;3.30;;
5217;SDS011;26539;51.064;6.346;2023-07-31T06:58:19;6.40;;;3.70;;
5217;SDS011;26539;51.064;6.346;2023-07-31T07:00:45;9.00;;;4.00;;
5217;SDS011;26539;51.064;6.346;2023-07-31T07:03:10;7.60;;;3.40;;
5217;SDS011;26539;51.064;6.346;2023-07-31T07:05:36;8.93;;;4.33;;
5217;SDS011;26539;51.064;6.346;2023-07-31T07:08:01;8.20;;;3.97;;
5217;SDS011;26539;51.064;6.346;2023-07-31T07:10:27;8.07;;;3.70;;
5217;SDS011;26539;51.064;6.346;2023-07-31T07:12:52;7.27;;;3.93;;
5217;SDS011;26539;51.064;6.346;2023-07-31T07:15:18;11.30;;;4.60;;
5217;SDS011;26539;51.064;6.346;2023-07-31T07:17:43;9.17;;;4.53;;
5217;SDS011;26539;51.064;6.346;2023-07-31T07:20:09;10.93;;;4.93;;
5217;SDS011;26539;51.064;6.346;2023-07-31T07:22:35;4.87;;;3.87;;
5217;SDS011;26539;51.064;6.346;2023-07-31T07:25:00;11.03;;;4.00;;
5217;SDS011;26539;51.064;6.346;2023-07-31T07:27:26;10.13;;;3.90;;
5217;SDS011;26539;51.064;6.346;2023-07-31T07:29:52;7.10;;;4.50;;
5217;SDS011;26539;51.064;6.346;2023-07-31T07:32:18;10.60;;;4.07;;
5217;SDS011;26539;51.064;6.346;2023-07-31T07:34:44;6.67;;;3.87;;
5217;SDS011;26539;51.064;6.346;2023-07-31T07:37:09;9.93;;;4.00;;
5217;SDS011;26539;51.064;6.346;2023-07-31T07:39:35;8.33;;;4.17;;
5217;SDS011;26539;51.064;6.346;2023-07-31T07:42:00;7.87;;;4.73;;
5217;SDS011;26539;51.064;6.346;2023-07-31T07:44:26;7.37;;;4.60;;
5217;SDS011;26539;51.064;6.346;2023-07-31T07:46:51;7.40;;;3.33;;
5217;SDS011;26539;51.064;6.346;2023-07-31T07:49:17;7.90;;;3.60;;
5217;SDS011;26539;51.064;6.346;2023-07-31T07:51:43;5.77;;;3.50;;
5217;SDS011;26539;51.064;6.346;2023-07-31T07:54:08;8.80;;;4.53;;
5217;SDS011;26539;51.064;6.346;2023-07-31T07:56:34;6.33;;;3.40;;
5217;SDS011;26539;51.064;6.346;2023-07-31T07:59:01;5.43;;;3.70;;
5217;SDS011;26539;51.064;6.346;2023-07-31T08:01:27;12.80;;;4.00;;
5217;SDS011;26539;51.064;6.346;2023-07-31T08:03:52;9.67;;;4.20;;
5217;SDS011;26539;51.064;6.346;2023-07-31T08:06:18;6.97;;;4.30;;
5217;SDS011;26539;51.064;6.346;2023-07-31T08:08:43;8.07;;;3.67;;
5217;SDS011;26539;51.064;6.346;2023-07-31T08:11:09;11.60;;;5.07;;
5217;SDS011;26539;51.064;6.346;2023-07-31T08:13:34;9.37;;;4.43;;
5217;SDS011;26539;51.064;6.346;2023-07-31T08:16:01;8.63;;;4.00;;
5217;SDS011;26539;51.064;6.346;2023-07-31T08:18:27;7.50;;;3.90;;
5217;SDS011;26539;51.064;6.346;2023-07-31T08:20:56;7.13;;;3.70;;
5217;SDS011;26539;51.064;6.346;2023-07-31T08:23:21;5.43;;;3.83;;
5217;SDS011;26539;51.064;6.346;2023-07-31T08:25:47;5.07;;;4.00;;
5217;SDS011;26539;51.064;6.346;2023-07-31T08:28:14;5.17;;;3.30;;
5217;SDS011;26539;51.064;6.346;2023-07-31T08:30:40;6.70;;;4.00;;
5217;SDS011;26539;51.064;6.346;2023-07-31T08:33:07;4.73;;;3.40;;
5217;SDS011;26539;51.064;6.346;2023-07-31T08:35:32;6.13;;;3.87;;
5217;SDS011;26539;51.064;6.346;2023-07-31T08:37:58;5.77;;;4.27;;
5217;SDS011;26539;51.064;6.346;2023-07-31T08:40:26;6.50;;;3.93;;
5217;SDS011;26539;51.064;6.346;2023-07-31T08:42:53;5.40;;;3.83;;
5217;SDS011;26539;51.064;6.346;2023-07-31T08:45:21;13.73;;;4.47;;
5217;SDS011;26539;51.064;6.346;2023-07-31T08:47:48;6.40;;;3.93;;
5217;SDS011;26539;51.064;6.346;2023-07-31T08:50:17;5.30;;;4.20;;
5217;SDS011;26539;51.064;6.346;2023-07-31T08:52:48;6.23;;;4.53;;
5217;SDS011;26539;51.064;6.346;2023-07-31T08:55:14;7.50;;;4.17;;
5217;SDS011;26539;51.064;6.346;2023-07-31T08:57:40;7.73;;;4.40;;
5217;SDS011;26539;51.064;6.346;2023-07-31T09:00:07;6.20;;;3.90;;
5217;SDS011;26539;51.064;6.346;2023-07-31T09:02:36;5.90;;;3.30;;
5217;SDS011;26539;51.064;6.346;2023-07-31T09:05:06;5.73;;;4.00;;
5217;SDS011;26539;51.064;6.346;2023-07-31T09:07:33;5.23;;;3.27;;
5217;SDS011;26539;51.064;6.346;2023-07-31T09:10:00;4.10;;;3.27;;
5217;SDS011;26539;51.064;6.346;2023-07-31T09:12:26;5.90;;;3.30;;
5217;SDS011;26539;51.064;6.346;2023-07-31T09:14:53;5.80;;;3.27;;
5217;SDS011;26539;51.064;6.346;2023-07-31T09:17:31;4.90;;;3.20;;
5217;SDS011;26539;51.064;6.346;2023-07-31T09:19:58;5.70;;;3.57;;
5217;SDS011;26539;51.064;6.346;2023-07-31T09:22:37;6.43;;;3.70;;
5217;SDS011;26539;51.064;6.346;2023-07-31T09:27:51;4.90;;;3.10;;
5217;SDS011;26539;51.064;6.346;2023-07-31T09:30:22;8.53;;;3.80;;
5217;SDS011;26539;51.064;6.346;2023-07-31T09:32:48;5.70;;;3.83;;
5217;SDS011;26539;51.064;6.346;2023-07-31T09:35:28;5.13;;;3.30;;
5217;SDS011;26539;51.064;6.346;2023-07-31T09:37:59;4.40;;;3.33;;
5217;SDS011;26539;51.064;6.346;2023-07-31T09:40:28;8.13;;;4.10;;
5217;SDS011;26539;51.064;6.346;2023-07-31T09:43:02;4.07;;;3.37;;
5217;SDS011;26539;51.064;6.346;2023-07-31T09:45:33;6.23;;;4.00;;
5217;SDS011;26539;51.064;6.346;2023-07-31T09:48:13;7.87;;;4.00;;
5217;SDS011;26539;51.064;6.346;2023-07-31T09:50:47;5.33;;;3.60;;
5217;SDS011;26539;51.064;6.346;2023-07-31T09:53:14;5.83;;;3.50;;
5217;SDS011;26539;51.064;6.346;2023-07-31T09:55:43;5.60;;;3.77;;
5217;SDS011;26539;51.064;6.346;2023-07-31T09:58:11;11.93;;;4.03;;
5217;SDS011;26539;51.064;6.346;2023-07-31T10:00:37;5.43;;;3.70;;
5217;SDS011;26539;51.064;6.346;2023-07-31T10:03:09;6.27;;;3.43;;
5217;SDS011;26539;51.064;6.346;2023-07-31T10:05:36;8.20;;;3.30;;
5217;SDS011;26539;51.064;6.346;2023-07-31T10:08:04;7.50;;;3.03;;
5217;SDS011;26539;51.064;6.346;2023-07-31T10:10:35;6.30;;;3.57;;
5217;SDS011;26539;51.064;6.346;2023-07-31T10:13:01;7.13;;;3.73;;
5217;SDS011;26539;51.064;6.346;2023-07-31T10:15:27;6.30;;;3.50;;
5217;SDS011;26539;51.064;6.346;2023-07-31T10:17:54;3.87;;;3.00;;
5217;SDS011;26539;51.064;6.346;2023-07-31T10:20:21;6.23;;;3.90;;
5217;SDS011;26539;51.064;6.346;2023-07-31T10:22:47;6.90;;;3.30;;
5217;SDS011;26539;51.064;6.346;2023-07-31T10:25:14;4.40;;;3.10;;
5217;SDS011;26539;51.064;6.346;2023-07-31T10:27:40;4.97;;;2.50;;
5217;SDS011;26539;51.064;6.346;2023-07-31T10:30:12;4.83;;;2.80;;
5217;SDS011;26539;51.064;6.346;2023-07-31T10:32:41;4.53;;;2.70;;
5217;SDS011;26539;51.064;6.346;2023-07-31T10:35:09;4.57;;;2.63;;
5217;SDS011;26539;51.064;6.346;2023-07-31T10:37:39;6.67;;;2.70;;
5217;SDS011;26539;51.064;6.346;2023-07-31T10:42:36;2.97;;;1.80;;
5217;SDS011;26539;51.064;6.346;2023-07-31T10:45:09;3.17;;;1.90;;
5217;SDS011;26539;51.064;6.346;2023-07-31T10:47:44;4.87;;;2.27;;
5217;SDS011;26539;51.064;6.346;2023-07-31T10:52:50;3.03;;;2.17;;
5217;SDS011;26539;51.064;6.346;2023-07-31T10:57:56;4.73;;;1.77;;
5217;SDS011;26539;51.064;6.346;2023-07-31T11:02:56;2.27;;;1.70;;
5217;SDS011;26539;51.064;6.346;2023-07-31T11:05:41;2.80;;;1.70;;
5217;SDS011;26539;51.064;6.346;2023-07-31T11:08:21;3.13;;;1.93;;
5217;SDS011;26539;51.064;6.346;2023-07-31T11:10:51;5.13;;;1.73;;
5217;SDS011;26539;51.064;6.346;2023-07-31T11:13:31;3.53;;;1.73;;
5217;SDS011;26539;51.064;6.346;2023-07-31T11:15:59;4.00;;;2.30;;
5217;SDS011;26539;51.064;6.346;2023-07-31T11:18:26;5.37;;;1.97;;
5217;SDS011;26539;51.064;6.346;2023-07-31T11:20:52;1.60;;;1.37;;
5217;SDS011;26539;51.064;6.346;2023-07-31T11:23:18;2.10;;;1.40;;
5217;SDS011;26539;51.064;6.346;2023-07-31T11:25:44;3.73;;;1.80;;
5217;SDS011;26539;51.064;6.346;2023-07-31T11:28:11;1.80;;;1.47;;
5217;SDS011;26539;51.064;6.346;2023-07-31T11:30:38;4.10;;;1.90;;
5217;SDS011;26539;51.064;6.346;2023-07-31T11:33:06;3.10;;;2.07;;
5217;SDS011;26539;51.064;6.346;2023-07-31T11:35:33;2.37;;;1.50;;
5217;SDS011;26539;51.064;6.346;2023-07-31T11:38:00;5.13;;;1.70;;
5217;SDS011;26539;51.064;6.346;2023-07-31T11:40:27;3.33;;;2.10;;
5217;SDS011;26539;51.064;6.346;2023-07-31T11:42:56;5.13;;;2.80;;
5217;SDS011;26539;51.064;6.346;2023-07-31T11:45:24;5.23;;;2.03;;
5217;SDS011;26539;51.064;6.346;2023-07-31T11:47:52;2.80;;;1.90;;
5217;SDS011;26539;51.064;6.346;2023-07-31T11:50:19;3.37;;;2.20;;
5217;SDS011;26539;51.064;6.346;2023-07-31T11:52:45;3.30;;;2.33;;
5217;SDS011;26539;51.064;6.346;2023-07-31T11:55:13;3.50;;;2.63;;
5217;SDS011;26539;51.064;6.346;2023-07-31T11:57:40;4.63;;;2.50;;
5217;SDS011;26539;51.064;6.346;2023-07-31T12:00:08;3.40;;;2.40;;
5217;SDS011;26539;51.064;6.346;2023-07-31T12:02:36;3.30;;;2.33;;
5217;SDS011;26539;51.064;6.346;2023-07-31T12:05:02;3.37;;;2.70;;
5217;SDS011;26539;51.064;6.346;2023-07-31T12:07:27;4.13;;;2.60;;
5217;SDS011;26539;51.064;6.346;2023-07-31T12:10:08;4.47;;;2.60;;
5217;SDS011;26539;51.064;6.346;2023-07-31T12:12:34;3.63;;;2.53;;
5217;SDS011;26539;51.064;6.346;2023-07-31T12:14:59;4.30;;;3.30;;
5217;SDS011;26539;51.064;6.346;2023-07-31T12:17:25;4.03;;;2.90;;
5217;SDS011;26539;51.064;6.346;2023-07-31T12:19:50;4.47;;;3.30;;
5217;SDS011;26539;51.064;6.346;2023-07-31T12:22:16;2.97;;;2.67;;
5217;SDS011;26539;51.064;6.346;2023-07-31T12:24:42;4.20;;;3.17;;
5217;SDS011;26539;51.064;6.346;2023-07-31T12:27:12;4.83;;;3.07;;
5217;SDS011;26539;51.064;6.346;2023-07-31T12:29:39;6.10;;;3.60;;
5217;SDS011;26539;51.064;6.346;2023-07-31T12:32:26;4.87;;;3.00;;
5217;SDS011;26539;51.064;6.346;2023-07-31T12:34:55;6.30;;;2.90;;
5217;SDS011;26539;51.064;6.346;2023-07-31T12:37:24;3.10;;;2.57;;
5217;SDS011;26539;51.064;6.346;2023-07-31T12:39:50;5.17;;;2.83;;
5217;SDS011;26539;51.064;6.346;2023-07-31T12:42:17;8.23;;;3.13;;
5217;SDS011;26539;51.064;6.346;2023-07-31T12:44:43;4.57;;;3.30;;
5217;SDS011;26539;51.064;6.346;2023-07-31T12:47:08;3.57;;;3.07;;
5217;SDS011;26539;51.064;6.346;2023-07-31T12:49:34;5.10;;;3.40;;
5217;SDS011;26539;51.064;6.346;2023-07-31T12:51:59;4.70;;;3.07;;
5217;SDS011;26539;51.064;6.346;2023-07-31T12:54:25;5.50;;;3.17;;
5217;SDS011;26539;51.064;6.346;2023-07-31T12:56:50;5.57;;;3.30;;
5217;SDS011;26539;51.064;6.346;2023-07-31T12:59:16;4.70;;;3.37;;
5217;SDS011;26539;51.064;6.346;2023-07-31T13:01:41;5.03;;;3.23;;
5217;SDS011;26539;51.064;6.346;2023-07-31T13:04:07;8.97;;;3.07;;
5217;SDS011;26539;51.064;6.346;2023-07-31T13:06:33;9.53;;;4.17;;
5217;SDS011;26539;51.064;6.346;2023-07-31T13:08:59;8.73;;;3.00;;
5217;SDS011;26539;51.064;6.346;2023-07-31T13:11:24;4.87;;;3.00;;
5217;SDS011;26539;51.064;6.346;2023-07-31T13:13:50;3.70;;;2.70;;
5217;SDS011;26539;51.064;6.346;2023-07-31T13:16:15;4.30;;;2.60;;
5217;SDS011;26539;51.064;6.346;2023-07-31T13:18:41;6.20;;;3.10;;
5217;SDS011;26539;51.064;6.346;2023-07-31T13:21:06;4.93;;;3.40;;
5217;SDS011;26539;51.064;6.346;2023-07-31T13:23:32;4.87;;;2.87;;
5217;SDS011;26539;51.064;6.346;2023-07-31T13:25:57;6.40;;;3.10;;
5217;SDS011;26539;51.064;6.346;2023-07-31T13:28:23;3.17;;;2.60;;
5217;SDS011;26539;51.064;6.346;2023-07-31T13:30:48;5.47;;;3.00;;
5217;SDS011;26539;51.064;6.346;2023-07-31T13:33:14;5.00;;;2.77;;
5217;SDS011;26539;51.064;6.346;2023-07-31T13:35:39;4.27;;;2.90;;
5217;SDS011;26539;51.064;6.346;2023-07-31T13:38:05;4.80;;;2.90;;
5217;SDS011;26539;51.064;6.346;2023-07-31T13:40:30;3.77;;;2.80;;
5217;SDS011;26539;51.064;6.346;2023-07-31T13:42:56;5.07;;;2.90;;
5217;SDS011;26539;51.064;6.346;2023-07-31T13:45:21;5.43;;;2.60;;
5217;SDS011;26539;51.064;6.346;2023-07-31T13:47:48;5.60;;;3.70;;
5217;SDS011;26539;51.064;6.346;2023-07-31T13:50:15;7.20;;;3.30;;
5217;SDS011;26539;51.064;6.346;2023-07-31T13:52:41;7.20;;;2.90;;
5217;SDS011;26539;51.064;6.346;2023-07-31T13:55:07;5.37;;;2.97;;
5217;SDS011;26539;51.064;6.346;2023-07-31T13:57:33;5.23;;;3.10;;
5217;SDS011;26539;51.064;6.346;2023-07-31T13:59:58;3.50;;;2.87;;
5217;SDS011;26539;51.064;6.346;2023-07-31T14:02:24;5.80;;;3.23;;
5217;SDS011;26539;51.064;6.346;2023-07-31T14:04:49;5.00;;;3.00;;
5217;SDS011;26539;51.064;6.346;2023-07-31T14:07:15;3.80;;;3.03;;
5217;SDS011;26539;51.064;6.346;2023-07-31T14:09:42;6.07;;;2.90;;
5217;SDS011;26539;51.064;6.346;2023-07-31T14:12:08;4.20;;;2.80;;
5217;SDS011;26539;51.064;6.346;2023-07-31T14:14:33;4.70;;;2.50;;
5217;SDS011;26539;51.064;6.346;2023-07-31T14:16:59;5.27;;;3.47;;
5217;SDS011;26539;51.064;6.346;2023-07-31T14:19:24;3.80;;;3.10;;
5217;SDS011;26539;51.064;6.346;2023-07-31T14:21:50;4.87;;;3.53;;
5217;SDS011;26539;51.064;6.346;2023-07-31T14:24:15;4.40;;;3.47;;
5217;SDS011;26539;51.064;6.346;2023-07-31T14:26:41;7.33;;;3.50;;
5217;SDS011;26539;51.064;6.346;2023-07-31T14:29:06;6.77;;;4.37;;
5217;SDS011;26539;51.064;6.346;2023-07-31T14:31:32;4.40;;;3.23;;
5217;SDS011;26539;51.064;6.346;2023-07-31T14:33:57;5.30;;;3.53;;
5217;SDS011;26539;51.064;6.346;2023-07-31T14:36:23;6.33;;;3.40;;
5217;SDS011;26539;51.064;6.346;2023-07-31T14:38:48;6.80;;;3.63;;
5217;SDS011;26539;51.064;6.346;2023-07-31T14:41:14;5.33;;;4.07;;
5217;SDS011;26539;51.064;6.346;2023-07-31T14:43:39;10.03;;;3.60;;
5217;SDS011;26539;51.064;6.346;2023-07-31T14:46:05;5.40;;;3.60;;
5217;SDS011;26539;51.064;6.346;2023-07-31T14:48:30;4.73;;;3.00;;
5217;SDS011;26539;51.064;6.346;2023-07-31T14:50:56;4.43;;;3.67;;
5217;SDS011;26539;51.064;6.346;2023-07-31T14:53:21;6.00;;;4.30;;
5217;SDS011;26539;51.064;6.346;2023-07-31T14:55:47;4.73;;;3.67;;
5217;SDS011;26539;51.064;6.346;2023-07-31T14:58:12;5.30;;;3.90;;
5217;SDS011;26539;51.064;6.346;2023-07-31T15:00:39;18.03;;;4.20;;
5217;SDS011;26539;51.064;6.346;2023-07-31T15:03:05;4.93;;;3.57;;
5217;SDS011;26539;51.064;6.346;2023-07-31T15:05:30;5.10;;;3.47;;
5217;SDS011;26539;51.064;6.346;2023-07-31T15:07:56;6.00;;;4.00;;
5217;SDS011;26539;51.064;6.346;2023-07-31T15:10:21;6.60;;;4.07;;
5217;SDS011;26539;51.064;6.346;2023-07-31T15:12:47;5.47;;;3.50;;
5217;SDS011;26539;51.064;6.346;2023-07-31T15:15:13;6.20;;;4.23;;